createdAt,value
2022-08-17T00:02:26.341Z,16.40
2022-08-17T00:04:55.372Z,16.40
2022-08-17T00:07:23.167Z,16.30
2022-08-17T00:09:50.330Z,16.40
2022-08-17T00:12:43.209Z,16.30
2022-08-17T00:15:10.399Z,16.30
2022-08-17T00:17:38.535Z,16.30
2022-08-17T00:20:06.648Z,16.30
2022-08-17T00:22:36.303Z,16.30
2022-08-17T00:25:10.262Z,16.30
2022-08-17T00:27:37.229Z,16.30
2022-08-17T00:30:10.361Z,16.30
2022-08-17T00:33:11.612Z,16.20
2022-08-17T00:35:32.160Z,16.20
2022-08-17T00:37:59.122Z,16.20
2022-08-17T00:40:26.413Z,16.20
2022-08-17T00:43:44.239Z,16.20
2022-08-17T00:46:15.497Z,16.20
2022-08-17T00:48:44.077Z,16.20
2022-08-17T00:51:17.213Z,16.20
2022-08-17T00:53:50.146Z,16.20
2022-08-17T00:56:25.104Z,16.10
2022-08-17T00:58:54.526Z,16.10
2022-08-17T01:01:22.303Z,16.10
2022-08-17T01:03:51.774Z,16.10
2022-08-17T01:06:19.642Z,16.10
2022-08-17T01:08:46.939Z,16.10
2022-08-17T01:11:13.976Z,16.10
2022-08-17T01:13:43.163Z,16.10
2022-08-17T01:16:24.541Z,16.10
2022-08-17T01:19:00.662Z,16.10
2022-08-17T01:21:27.870Z,16.10
2022-08-17T01:23:55.522Z,16.00
2022-08-17T01:26:26.586Z,16.00
2022-08-17T01:28:55.923Z,16.00
2022-08-17T01:31:25.311Z,16.10
2022-08-17T01:33:53.368Z,16.00
2022-08-17T01:36:20.602Z,16.00
2022-08-17T01:38:47.725Z,16.00
2022-08-17T01:41:16.409Z,15.90
2022-08-17T01:43:55.769Z,15.90
2022-08-17T01:46:27.235Z,15.90
2022-08-17T01:48:56.319Z,15.90
2022-08-17T01:51:25.949Z,15.90
2022-08-17T01:53:57.572Z,15.90
2022-08-17T01:56:26.469Z,15.90
2022-08-17T01:58:53.741Z,15.90
2022-08-17T02:01:29.959Z,15.80
2022-08-17T02:04:00.898Z,15.80
2022-08-17T02:06:43.954Z,15.80
2022-08-17T02:09:17.059Z,15.80
2022-08-17T02:11:45.300Z,15.80
2022-08-17T02:14:13.538Z,15.80
2022-08-17T02:16:41.734Z,15.80
2022-08-17T02:19:14.594Z,15.80
2022-08-17T02:21:44.765Z,15.80
2022-08-17T02:24:17.679Z,15.80
2022-08-17T02:27:05.567Z,15.90
2022-08-17T02:29:32.657Z,15.90
2022-08-17T02:32:00.261Z,15.90
2022-08-17T02:34:27.593Z,15.80
2022-08-17T02:36:54.688Z,15.90
2022-08-17T02:39:21.788Z,15.80
2022-08-17T02:41:49.107Z,15.80
2022-08-17T02:44:39.189Z,15.80
2022-08-17T02:47:04.218Z,15.80
2022-08-17T02:49:31.393Z,15.80
2022-08-17T02:51:59.015Z,15.80
2022-08-17T02:54:41.067Z,15.80
2022-08-17T02:57:10.431Z,15.80
2022-08-17T02:59:48.319Z,15.80
2022-08-17T03:02:15.989Z,15.80
2022-08-17T03:04:43.099Z,15.80
2022-08-17T03:07:10.095Z,15.80
2022-08-17T03:09:37.782Z,15.80
2022-08-17T03:12:08.244Z,15.80
2022-08-17T03:14:41.455Z,15.80
2022-08-17T03:17:10.677Z,15.80
2022-08-17T03:19:38.866Z,15.80
2022-08-17T03:22:36.641Z,15.80
2022-08-17T03:24:58.093Z,15.80
2022-08-17T03:27:25.084Z,15.80
2022-08-17T03:29:52.091Z,15.80
2022-08-17T03:32:20.779Z,15.80
2022-08-17T03:34:48.220Z,15.80
2022-08-17T03:37:15.241Z,15.80
2022-08-17T03:39:42.980Z,15.80
2022-08-17T03:42:32.028Z,15.80
2022-08-17T03:45:01.324Z,15.80
2022-08-17T03:47:47.186Z,15.80
2022-08-17T03:50:34.709Z,15.80
2022-08-17T03:53:22.390Z,15.80
2022-08-17T03:56:08.075Z,15.80
2022-08-17T03:58:37.394Z,15.80
2022-08-17T04:01:06.109Z,15.70
2022-08-17T04:03:33.646Z,15.70
2022-08-17T04:06:02.231Z,15.70
2022-08-17T04:08:30.404Z,15.80
2022-08-17T04:10:58.910Z,15.70
2022-08-17T04:13:26.414Z,15.70
2022-08-17T04:15:54.038Z,15.70
2022-08-17T04:18:21.053Z,15.70
2022-08-17T04:20:48.081Z,15.70
2022-08-17T04:23:17.830Z,15.70
2022-08-17T04:25:49.089Z,15.70
2022-08-17T04:28:17.900Z,15.70
2022-08-17T04:30:46.899Z,15.70
2022-08-17T04:33:25.854Z,15.70
2022-08-17T04:35:59.281Z,15.70
2022-08-17T04:38:29.703Z,15.70
2022-08-17T04:41:17.408Z,15.70
2022-08-17T04:43:46.509Z,15.70
2022-08-17T04:46:16.841Z,15.70
2022-08-17T04:48:49.740Z,15.70
2022-08-17T04:51:20.140Z,15.70
2022-08-17T05:06:19.341Z,15.70
2022-08-17T07:16:07.864Z,15.50
2022-08-17T07:46:29.875Z,14.90
2022-08-17T07:49:07.647Z,14.90
2022-08-17T07:51:42.463Z,14.80
2022-08-17T08:35:59.158Z,14.80
2022-08-17T08:41:13.333Z,14.90
2022-08-17T08:50:02.585Z,15.00
2022-08-17T10:00:25.024Z,15.00
2022-08-17T10:03:09.867Z,16.00
2022-08-17T10:05:55.000Z,16.10
2022-08-17T10:08:52.856Z,16.10
2022-08-17T10:11:53.238Z,16.10
2022-08-17T10:14:54.234Z,16.10
2022-08-17T10:17:37.933Z,16.20
2022-08-17T10:20:17.077Z,16.10
2022-08-17T10:23:09.104Z,16.10
2022-08-17T10:26:14.329Z,16.10
2022-08-17T10:28:52.816Z,16.20
2022-08-17T10:31:35.639Z,16.20
2022-08-17T10:34:45.357Z,16.20
2022-08-17T10:37:12.325Z,16.20
2022-08-17T10:39:57.500Z,16.20
2022-08-17T10:42:43.614Z,16.20
2022-08-17T10:45:29.628Z,16.20
2022-08-17T10:48:07.620Z,16.20
2022-08-17T10:50:47.515Z,16.20
2022-08-17T10:53:40.745Z,16.20
2022-08-17T10:56:13.928Z,16.20
2022-08-17T10:58:49.663Z,16.20
2022-08-17T11:01:21.873Z,16.20
2022-08-17T11:03:56.694Z,16.20
2022-08-17T11:06:47.703Z,16.20
2022-08-17T11:10:00.453Z,16.20
2022-08-17T11:12:45.422Z,16.30
2022-08-17T11:15:39.150Z,16.30
2022-08-17T11:18:12.951Z,16.30
2022-08-17T11:20:59.719Z,16.30
2022-08-17T11:23:38.486Z,16.40
2022-08-17T11:26:30.593Z,16.40
2022-08-17T11:29:02.151Z,16.50
2022-08-17T11:31:38.296Z,16.50
2022-08-17T11:34:28.888Z,16.50
2022-08-17T11:37:26.337Z,16.50
2022-08-17T11:40:20.621Z,16.50
2022-08-17T11:43:06.764Z,16.50
2022-08-17T11:46:02.091Z,16.60
2022-08-17T11:49:00.402Z,16.60
2022-08-17T11:51:53.349Z,16.60
2022-08-17T11:54:33.391Z,16.60
2022-08-17T11:57:24.141Z,16.60
2022-08-17T11:59:53.957Z,16.60
2022-08-17T12:02:29.805Z,16.60
2022-08-17T12:05:02.723Z,16.60
2022-08-17T12:07:33.077Z,16.70
2022-08-17T12:10:01.095Z,16.60
2022-08-17T12:12:35.502Z,16.60
2022-08-17T12:15:11.858Z,16.60
2022-08-17T12:17:42.736Z,16.60
2022-08-17T12:20:27.797Z,16.60
2022-08-17T12:23:19.797Z,16.60
2022-08-17T12:25:56.651Z,16.70
2022-08-17T12:28:27.999Z,16.60
2022-08-17T12:30:59.706Z,16.60
2022-08-17T12:33:28.916Z,16.60
2022-08-17T12:36:05.420Z,16.70
2022-08-17T12:38:38.199Z,16.70
2022-08-17T12:41:25.860Z,16.70
2022-08-17T12:44:20.538Z,16.80
2022-08-17T12:46:50.036Z,16.80
2022-08-17T12:49:22.963Z,16.90
2022-08-17T12:51:53.453Z,16.90
2022-08-17T12:54:45.422Z,16.90
2022-08-17T12:57:23.641Z,16.90
2022-08-17T13:00:00.314Z,17.00
2022-08-17T13:02:43.541Z,17.00
2022-08-17T13:05:20.677Z,17.00
2022-08-17T13:07:48.022Z,17.10
2022-08-17T13:10:32.562Z,17.10
2022-08-17T13:13:05.198Z,17.10
2022-08-17T13:15:36.208Z,17.20
2022-08-17T13:18:07.937Z,17.30
2022-08-17T13:20:36.359Z,17.30
2022-08-17T13:23:11.928Z,17.40
2022-08-17T13:25:39.419Z,17.40
2022-08-17T13:28:06.396Z,17.40
2022-08-17T13:30:33.794Z,17.50
2022-08-17T13:33:04.705Z,17.50
2022-08-17T13:35:47.080Z,17.60
2022-08-17T13:38:41.130Z,17.70
2022-08-17T13:41:08.851Z,17.70
2022-08-17T13:43:45.631Z,17.80
2022-08-17T13:46:26.597Z,17.90
2022-08-17T13:49:02.689Z,18.00
2022-08-17T13:51:43.948Z,18.00
2022-08-17T13:54:34.265Z,18.10
2022-08-17T13:57:03.297Z,18.10
2022-08-17T13:59:53.678Z,18.20
2022-08-17T14:02:27.577Z,18.20
2022-08-17T14:04:56.576Z,18.30
2022-08-17T14:07:28.500Z,18.30
2022-08-17T14:10:04.472Z,18.40
2022-08-17T14:12:33.871Z,18.40
2022-08-17T14:15:01.599Z,18.40
2022-08-17T14:17:29.461Z,18.50
2022-08-17T14:19:56.429Z,18.50
2022-08-17T14:22:29.668Z,18.50
2022-08-17T14:24:57.894Z,18.50
2022-08-17T14:27:28.064Z,18.50
2022-08-17T14:29:56.405Z,18.50
2022-08-17T14:32:32.680Z,18.50
2022-08-17T14:35:00.805Z,18.60
2022-08-17T14:37:29.639Z,18.60
2022-08-17T14:39:58.791Z,18.60
2022-08-17T14:42:29.578Z,18.60
2022-08-17T14:44:58.784Z,18.50
2022-08-17T14:47:27.585Z,18.60
2022-08-17T14:49:54.646Z,18.60
2022-08-17T14:52:22.139Z,18.60
2022-08-17T14:54:51.329Z,18.60
2022-08-17T14:57:34.306Z,18.60
2022-08-17T15:00:02.542Z,18.60
2022-08-17T15:02:31.073Z,18.70
2022-08-17T15:04:59.907Z,18.70
2022-08-17T15:07:30.095Z,18.70
2022-08-17T15:10:00.732Z,18.80
2022-08-17T15:12:32.306Z,18.80
2022-08-17T15:15:01.071Z,18.80
2022-08-17T15:17:45.126Z,18.80
2022-08-17T15:20:25.340Z,18.90
2022-08-17T15:22:56.115Z,18.90
2022-08-17T15:25:25.141Z,18.80
2022-08-17T15:27:52.529Z,18.80
2022-08-17T15:30:20.277Z,18.80
2022-08-17T15:32:54.525Z,18.80
2022-08-17T15:35:29.191Z,18.80
2022-08-17T15:38:07.851Z,18.70
2022-08-17T15:40:40.734Z,18.70
2022-08-17T15:43:11.339Z,18.70
2022-08-17T15:45:39.233Z,18.70
2022-08-17T15:48:06.968Z,18.70
2022-08-17T15:50:34.073Z,18.60
2022-08-17T15:53:02.002Z,18.60
2022-08-17T15:55:31.006Z,18.60
2022-08-17T15:57:58.087Z,18.60
2022-08-17T16:00:28.234Z,18.70
2022-08-17T16:03:16.041Z,18.60
2022-08-17T16:05:43.927Z,18.60
2022-08-17T16:08:11.623Z,18.60
2022-08-17T16:10:39.025Z,18.60
2022-08-17T16:13:06.168Z,18.60
2022-08-17T16:15:53.054Z,18.60
2022-08-17T16:18:28.313Z,18.60
2022-08-17T16:20:55.544Z,18.60
2022-08-17T16:23:22.537Z,18.60
2022-08-17T16:25:53.804Z,18.60
2022-08-17T16:28:23.401Z,18.60
2022-08-17T16:31:03.854Z,18.50
2022-08-17T16:33:30.842Z,18.60
2022-08-17T16:35:57.944Z,18.50
2022-08-17T16:38:25.068Z,18.50
2022-08-17T16:40:52.046Z,18.60
2022-08-17T16:43:19.310Z,18.60
2022-08-17T16:45:51.798Z,18.60
2022-08-17T16:48:19.751Z,18.60
2022-08-17T16:51:02.933Z,18.70
2022-08-17T16:53:31.489Z,18.60
2022-08-17T16:55:58.564Z,18.60
2022-08-17T16:58:25.748Z,18.70
2022-08-17T17:00:53.163Z,18.60
2022-08-17T17:03:24.857Z,18.60
2022-08-17T17:05:59.876Z,18.50
2022-08-17T17:08:37.488Z,18.50
2022-08-17T17:11:33.682Z,18.50
2022-08-17T17:14:09.249Z,18.40
2022-08-17T17:16:53.393Z,18.40
2022-08-17T17:19:35.325Z,18.40
2022-08-17T17:22:16.355Z,18.40
2022-08-17T17:25:20.230Z,18.30
2022-08-17T17:27:53.712Z,18.30
2022-08-17T17:30:29.612Z,18.30
2022-08-17T17:33:11.029Z,18.30
2022-08-17T17:35:54.493Z,18.30
2022-08-17T17:38:31.243Z,18.20
2022-08-17T17:41:11.154Z,18.20
2022-08-17T17:43:40.364Z,18.20
2022-08-17T17:46:29.099Z,18.20
2022-08-17T17:48:57.599Z,18.20
2022-08-17T17:52:06.778Z,18.10
2022-08-17T17:54:40.616Z,18.10
2022-08-17T17:57:11.579Z,18.10
2022-08-17T18:00:16.961Z,18.10
2022-08-17T18:03:03.638Z,18.00
2022-08-17T18:05:47.299Z,18.00
2022-08-17T18:08:35.641Z,18.00
2022-08-17T18:11:14.728Z,18.00
2022-08-17T18:13:54.200Z,18.00
2022-08-17T18:16:22.553Z,18.00
2022-08-17T18:18:52.285Z,17.90
2022-08-17T18:21:27.497Z,17.90
2022-08-17T18:23:57.254Z,17.90
2022-08-17T18:26:36.458Z,17.90
2022-08-17T18:29:24.620Z,17.90
2022-08-17T18:32:24.365Z,17.90
2022-08-17T18:35:16.328Z,17.90
2022-08-17T18:37:49.575Z,17.90
2022-08-17T18:40:16.677Z,17.80
2022-08-17T18:43:00.643Z,17.80
2022-08-17T18:45:44.642Z,17.80
2022-08-17T18:48:22.605Z,17.80
2022-08-17T18:50:53.545Z,17.80
2022-08-17T18:53:33.278Z,17.80
2022-08-17T18:56:26.301Z,17.80
2022-08-17T18:59:16.781Z,17.80
2022-08-17T19:01:59.977Z,17.80
2022-08-17T19:04:36.375Z,17.80
2022-08-17T19:07:30.080Z,17.70
2022-08-17T19:10:02.884Z,17.80
2022-08-17T19:12:38.282Z,17.70
2022-08-17T19:15:08.054Z,17.70
2022-08-17T19:17:53.248Z,17.70
2022-08-17T19:20:28.675Z,17.70
2022-08-17T19:23:17.422Z,17.70
2022-08-17T19:25:54.331Z,17.70
2022-08-17T19:28:25.735Z,17.70
2022-08-17T19:31:04.529Z,17.70
2022-08-17T19:33:32.081Z,17.70
2022-08-17T19:36:06.537Z,17.60
2022-08-17T19:38:52.994Z,17.60
2022-08-17T19:41:28.236Z,17.60
2022-08-17T19:43:58.334Z,17.60
2022-08-17T19:47:00.748Z,17.60
2022-08-17T19:49:46.372Z,17.60
2022-08-17T19:52:31.746Z,17.60
2022-08-17T19:55:20.250Z,17.60
2022-08-17T19:58:11.413Z,17.60
2022-08-17T20:00:51.034Z,17.50
2022-08-17T20:03:49.982Z,17.50
2022-08-17T20:06:17.685Z,17.50
2022-08-17T20:08:59.166Z,17.50
2022-08-17T20:11:58.623Z,17.50
2022-08-17T20:14:37.865Z,17.50
2022-08-17T20:17:05.830Z,17.50
2022-08-17T20:19:57.422Z,17.40
2022-08-17T20:22:58.652Z,17.50
2022-08-17T20:25:32.548Z,17.50
2022-08-17T20:28:12.420Z,17.40
2022-08-17T20:30:42.675Z,17.40
2022-08-17T20:33:23.816Z,17.40
2022-08-17T20:36:24.481Z,17.40
2022-08-17T20:38:59.825Z,17.40
2022-08-17T20:41:29.918Z,17.40
2022-08-17T20:43:57.043Z,17.40
2022-08-17T20:46:36.027Z,17.40
2022-08-17T20:49:19.137Z,17.40
2022-08-17T20:52:01.518Z,17.40
2022-08-17T20:54:41.101Z,17.40
2022-08-17T20:57:14.156Z,17.40
2022-08-17T20:59:45.123Z,17.40
2022-08-17T21:02:21.699Z,17.40
2022-08-17T21:04:52.957Z,17.40
2022-08-17T21:07:42.849Z,17.40
2022-08-17T21:10:13.907Z,17.30
2022-08-17T21:12:48.706Z,17.30
2022-08-17T21:15:21.927Z,17.30
2022-08-17T21:17:59.200Z,17.30
2022-08-17T21:20:32.178Z,17.30
2022-08-17T21:23:11.896Z,17.30
2022-08-17T21:25:48.907Z,17.30
2022-08-17T21:29:01.136Z,17.30
2022-08-17T21:32:03.268Z,17.30
2022-08-17T21:34:43.579Z,17.30
2022-08-17T21:37:23.525Z,17.20
2022-08-17T21:40:18.497Z,17.20
2022-08-17T21:42:49.078Z,17.20
2022-08-17T21:45:25.329Z,17.20
2022-08-17T21:48:20.216Z,17.20
2022-08-17T21:51:00.931Z,17.20
2022-08-17T21:53:56.239Z,17.20
2022-08-17T21:56:36.305Z,17.10
2022-08-17T21:59:07.574Z,17.20
2022-08-17T22:01:50.636Z,17.10
2022-08-17T22:04:29.264Z,17.10
2022-08-17T22:06:59.711Z,17.10
2022-08-17T22:09:41.645Z,17.10
2022-08-17T22:12:17.270Z,17.20
2022-08-17T22:14:53.424Z,17.10
2022-08-17T22:17:28.879Z,17.10
2022-08-17T22:20:09.348Z,17.10
2022-08-17T22:23:12.626Z,17.00
2022-08-17T22:25:56.058Z,17.10
2022-08-17T22:28:46.328Z,17.00
2022-08-17T22:31:26.265Z,17.00
2022-08-17T22:33:59.905Z,17.00
2022-08-17T22:36:39.022Z,16.90
2022-08-17T22:39:08.953Z,16.90
2022-08-17T22:41:43.717Z,16.90
2022-08-17T22:44:19.670Z,16.80
2022-08-17T22:47:06.775Z,16.80
2022-08-17T22:49:53.513Z,16.90
2022-08-17T22:52:24.123Z,16.80
2022-08-17T22:55:32.311Z,16.70
2022-08-17T22:58:18.735Z,16.70
2022-08-17T23:00:49.227Z,16.70
2022-08-17T23:03:20.706Z,16.70
2022-08-17T23:06:10.073Z,16.70
2022-08-17T23:08:49.984Z,16.70
2022-08-17T23:11:17.183Z,16.70
2022-08-17T23:13:44.438Z,16.70
2022-08-17T23:16:11.414Z,16.60
2022-08-17T23:18:38.409Z,16.60
2022-08-17T23:21:07.344Z,16.60
2022-08-17T23:23:35.239Z,16.60
2022-08-17T23:26:02.275Z,16.60
2022-08-17T23:28:29.273Z,16.50
2022-08-17T23:30:56.405Z,16.50
2022-08-17T23:33:30.281Z,16.50
2022-08-17T23:35:58.832Z,16.50
2022-08-17T23:38:27.353Z,16.40
2022-08-17T23:40:55.006Z,16.50
2022-08-17T23:43:25.613Z,16.50
2022-08-17T23:45:57.928Z,16.40
2022-08-17T23:48:28.645Z,16.50
2022-08-17T23:51:12.329Z,16.40
2022-08-17T23:53:44.760Z,16.40
2022-08-17T23:56:11.959Z,16.50
2022-08-17T23:58:43.654Z,16.40
